sensor_id;sensor_type;location;lat;lon;timestamp;temperature;humidity
45549;DHT22;31270;48.328;10.096;2023-11-21T00:02:25;7.30;99.90
45549;DHT22;31270;48.328;10.096;2023-11-21T00:04:51;7.30;99.90
45549;DHT22;31270;48.328;10.096;2023-11-21T00:07:17;7.30;99.90
45549;DHT22;31270;48.328;10.096;2023-11-21T00:09:43;7.20;99.90
45549;DHT22;31270;48.328;10.096;2023-11-21T00:12:08;7.20;99.90
45549;DHT22;31270;48.328;10.096;2023-11-21T00:14:37;7.20;99.90
45549;DHT22;31270;48.328;10.096;2023-11-21T00:17:04;7.20;99.90
45549;DHT22;31270;48.328;10.096;2023-11-21T00:19:30;7.20;99.90
45549;DHT22;31270;48.328;10.096;2023-11-21T00:21:56;7.20;99.90
45549;DHT22;31270;48.328;10.096;2023-11-21T00:24:23;7.10;99.90
45549;DHT22;31270;48.328;10.096;2023-11-21T00:26:50;7.10;99.90
45549;DHT22;31270;48.328;10.096;2023-11-21T00:29:16;7.10;99.90
45549;DHT22;31270;48.328;10.096;2023-11-21T00:31:43;7.10;99.90
45549;DHT22;31270;48.328;10.096;2023-11-21T00:34:12;7.10;99.90
45549;DHT22;31270;48.328;10.096;2023-11-21T00:36:38;7.10;99.90
45549;DHT22;31270;48.328;10.096;2023-11-21T00:39:03;7.10;99.90
45549;DHT22;31270;48.328;10.096;2023-11-21T00:41:32;7.00;99.90
45549;DHT22;31270;48.328;10.096;2023-11-21T00:43:58;7.00;99.90
45549;DHT22;31270;48.328;10.096;2023-11-21T00:46:24;7.00;99.90
45549;DHT22;31270;48.328;10.096;2023-11-21T00:48:52;7.00;99.90
45549;DHT22;31270;48.328;10.096;2023-11-21T00:51:19;7.00;99.90
45549;DHT22;31270;48.328;10.096;2023-11-21T00:53:45;7.00;99.90
45549;DHT22;31270;48.328;10.096;2023-11-21T00:56:12;7.00;99.90
45549;DHT22;31270;48.328;10.096;2023-11-21T00:58:37;7.00;99.90
45549;DHT22;31270;48.328;10.096;2023-11-21T01:01:03;7.00;99.90
45549;DHT22;31270;48.328;10.096;2023-11-21T01:03:29;7.00;99.90
45549;DHT22;31270;48.328;10.096;2023-11-21T01:05:54;7.00;99.90
45549;DHT22;31270;48.328;10.096;2023-11-21T01:08:20;7.00;99.90
45549;DHT22;31270;48.328;10.096;2023-11-21T01:10:46;6.90;99.90
45549;DHT22;31270;48.328;10.096;2023-11-21T01:13:12;6.90;99.90
45549;DHT22;31270;48.328;10.096;2023-11-21T01:15:40;6.90;99.90
45549;DHT22;31270;48.328;10.096;2023-11-21T01:18:07;6.90;99.90
45549;DHT22;31270;48.328;10.096;2023-11-21T01:20:34;6.90;99.90
45549;DHT22;31270;48.328;10.096;2023-11-21T01:22:59;6.90;99.90
45549;DHT22;31270;48.328;10.096;2023-11-21T01:25:25;7.00;99.90
45549;DHT22;31270;48.328;10.096;2023-11-21T01:27:52;6.90;99.90
45549;DHT22;31270;48.328;10.096;2023-11-21T01:30:18;6.90;99.90
45549;DHT22;31270;48.328;10.096;2023-11-21T01:32:43;6.90;99.90
45549;DHT22;31270;48.328;10.096;2023-11-21T01:35:09;6.90;99.90
45549;DHT22;31270;48.328;10.096;2023-11-21T01:37:36;6.90;99.90
45549;DHT22;31270;48.328;10.096;2023-11-21T01:40:01;6.90;99.90
45549;DHT22;31270;48.328;10.096;2023-11-21T01:42:30;6.90;99.90
45549;DHT22;31270;48.328;10.096;2023-11-21T01:44:56;6.90;99.90
45549;DHT22;31270;48.328;10.096;2023-11-21T01:47:21;7.00;99.90
45549;DHT22;31270;48.328;10.096;2023-11-21T01:49:47;6.90;99.90
45549;DHT22;31270;48.328;10.096;2023-11-21T01:52:13;6.90;99.90
45549;DHT22;31270;48.328;10.096;2023-11-21T01:54:41;6.90;99.90
45549;DHT22;31270;48.328;10.096;2023-11-21T01:57:07;6.90;99.90
45549;DHT22;31270;48.328;10.096;2023-11-21T01:59:37;6.90;99.90
45549;DHT22;31270;48.328;10.096;2023-11-21T02:02:06;6.90;99.90
45549;DHT22;31270;48.328;10.096;2023-11-21T02:04:33;6.80;99.90
45549;DHT22;31270;48.328;10.096;2023-11-21T02:06:59;6.90;99.90
45549;DHT22;31270;48.328;10.096;2023-11-21T02:09:27;6.90;99.90
45549;DHT22;31270;48.328;10.096;2023-11-21T02:11:53;6.90;99.90
45549;DHT22;31270;48.328;10.096;2023-11-21T02:14:20;6.90;99.90
45549;DHT22;31270;48.328;10.096;2023-11-21T02:16:48;6.90;99.90
45549;DHT22;31270;48.328;10.096;2023-11-21T02:19:18;6.90;99.90
45549;DHT22;31270;48.328;10.096;2023-11-21T02:21:54;6.90;99.90
45549;DHT22;31270;48.328;10.096;2023-11-21T02:24:23;6.80;99.90
45549;DHT22;31270;48.328;10.096;2023-11-21T02:26:50;6.80;99.90
45549;DHT22;31270;48.328;10.096;2023-11-21T02:29:20;6.90;99.90
45549;DHT22;31270;48.328;10.096;2023-11-21T02:31:53;6.90;99.90
45549;DHT22;31270;48.328;10.096;2023-11-21T02:34:20;6.90;99.90
45549;DHT22;31270;48.328;10.096;2023-11-21T02:36:46;6.90;99.90
45549;DHT22;31270;48.328;10.096;2023-11-21T02:39:15;6.80;99.90
45549;DHT22;31270;48.328;10.096;2023-11-21T02:41:40;6.80;99.90
45549;DHT22;31270;48.328;10.096;2023-11-21T02:44:06;6.80;99.90
45549;DHT22;31270;48.328;10.096;2023-11-21T02:46:33;6.80;99.90
45549;DHT22;31270;48.328;10.096;2023-11-21T02:49:05;6.80;99.90
45549;DHT22;31270;48.328;10.096;2023-11-21T02:51:36;6.90;99.90
45549;DHT22;31270;48.328;10.096;2023-11-21T02:54:03;6.80;99.90
45549;DHT22;31270;48.328;10.096;2023-11-21T02:56:32;6.80;99.90
45549;DHT22;31270;48.328;10.096;2023-11-21T02:58:59;6.80;99.90
45549;DHT22;31270;48.328;10.096;2023-11-21T03:01:25;6.80;99.90
45549;DHT22;31270;48.328;10.096;2023-11-21T03:03:51;6.80;99.90
45549;DHT22;31270;48.328;10.096;2023-11-21T03:06:18;6.80;99.90
45549;DHT22;31270;48.328;10.096;2023-11-21T03:08:44;6.80;99.90
45549;DHT22;31270;48.328;10.096;2023-11-21T03:11:09;6.80;99.90
45549;DHT22;31270;48.328;10.096;2023-11-21T03:13:35;6.80;99.90
45549;DHT22;31270;48.328;10.096;2023-11-21T03:16:00;6.80;99.90
45549;DHT22;31270;48.328;10.096;2023-11-21T03:18:26;6.70;99.90
45549;DHT22;31270;48.328;10.096;2023-11-21T03:20:55;6.70;99.90
45549;DHT22;31270;48.328;10.096;2023-11-21T03:23:20;6.70;99.90
45549;DHT22;31270;48.328;10.096;2023-11-21T03:25:46;6.60;99.90
45549;DHT22;31270;48.328;10.096;2023-11-21T03:28:11;6.60;99.90
45549;DHT22;31270;48.328;10.096;2023-11-21T03:30:37;6.70;99.90
45549;DHT22;31270;48.328;10.096;2023-11-21T03:33:03;6.70;99.90
45549;DHT22;31270;48.328;10.096;2023-11-21T03:35:29;6.60;99.90
45549;DHT22;31270;48.328;10.096;2023-11-21T03:37:54;6.60;99.90
45549;DHT22;31270;48.328;10.096;2023-11-21T03:40:20;6.70;99.90
45549;DHT22;31270;48.328;10.096;2023-11-21T03:42:46;6.70;99.90
45549;DHT22;31270;48.328;10.096;2023-11-21T03:45:12;6.60;99.90
45549;DHT22;31270;48.328;10.096;2023-11-21T03:47:43;6.60;99.90
45549;DHT22;31270;48.328;10.096;2023-11-21T03:50:09;6.70;99.90
45549;DHT22;31270;48.328;10.096;2023-11-21T03:52:35;6.70;99.90
45549;DHT22;31270;48.328;10.096;2023-11-21T03:55:01;6.70;99.90
45549;DHT22;31270;48.328;10.096;2023-11-21T03:57:27;6.70;99.90
45549;DHT22;31270;48.328;10.096;2023-11-21T03:59:53;6.70;99.90
45549;DHT22;31270;48.328;10.096;2023-11-21T04:02:19;6.70;99.90
45549;DHT22;31270;48.328;10.096;2023-11-21T04:04:45;6.70;99.90
45549;DHT22;31270;48.328;10.096;2023-11-21T04:07:11;6.70;99.90
45549;DHT22;31270;48.328;10.096;2023-11-21T04:09:39;6.70;99.90
45549;DHT22;31270;48.328;10.096;2023-11-21T04:12:05;6.70;99.90
45549;DHT22;31270;48.328;10.096;2023-11-21T04:14:30;6.80;99.90
45549;DHT22;31270;48.328;10.096;2023-11-21T04:16:57;6.80;99.90
45549;DHT22;31270;48.328;10.096;2023-11-21T04:19:22;6.80;99.90
45549;DHT22;31270;48.328;10.096;2023-11-21T04:21:49;6.70;99.90
45549;DHT22;31270;48.328;10.096;2023-11-21T04:24:14;6.70;99.90
45549;DHT22;31270;48.328;10.096;2023-11-21T04:26:40;6.70;99.90
45549;DHT22;31270;48.328;10.096;2023-11-21T04:29:06;6.70;99.90
45549;DHT22;31270;48.328;10.096;2023-11-21T04:31:31;6.80;99.90
45549;DHT22;31270;48.328;10.096;2023-11-21T04:33:57;6.80;99.90
45549;DHT22;31270;48.328;10.096;2023-11-21T04:36:24;6.70;99.90
45549;DHT22;31270;48.328;10.096;2023-11-21T04:38:50;6.70;99.90
45549;DHT22;31270;48.328;10.096;2023-11-21T04:41:16;6.80;99.90
45549;DHT22;31270;48.328;10.096;2023-11-21T04:43:42;6.80;99.90
45549;DHT22;31270;48.328;10.096;2023-11-21T04:46:08;6.80;99.90
45549;DHT22;31270;48.328;10.096;2023-11-21T04:48:34;6.80;99.90
45549;DHT22;31270;48.328;10.096;2023-11-21T04:51:00;6.70;99.90
45549;DHT22;31270;48.328;10.096;2023-11-21T04:53:26;6.80;99.90
45549;DHT22;31270;48.328;10.096;2023-11-21T04:55:52;6.80;99.90
45549;DHT22;31270;48.328;10.096;2023-11-21T04:58:18;6.80;99.90
45549;DHT22;31270;48.328;10.096;2023-11-21T05:00:44;6.80;99.90
45549;DHT22;31270;48.328;10.096;2023-11-21T05:03:11;6.80;99.90
45549;DHT22;31270;48.328;10.096;2023-11-21T05:05:37;6.80;99.90
45549;DHT22;31270;48.328;10.096;2023-11-21T05:08:04;6.80;99.90
45549;DHT22;31270;48.328;10.096;2023-11-21T05:10:30;6.80;99.90
45549;DHT22;31270;48.328;10.096;2023-11-21T05:12:56;6.80;99.90
45549;DHT22;31270;48.328;10.096;2023-11-21T05:15:22;6.80;99.90
45549;DHT22;31270;48.328;10.096;2023-11-21T05:17:49;6.70;99.90
45549;DHT22;31270;48.328;10.096;2023-11-21T05:20:17;6.70;99.90
45549;DHT22;31270;48.328;10.096;2023-11-21T05:22:46;6.70;99.90
45549;DHT22;31270;48.328;10.096;2023-11-21T05:25:13;6.70;99.90
45549;DHT22;31270;48.328;10.096;2023-11-21T05:27:40;6.70;99.90
45549;DHT22;31270;48.328;10.096;2023-11-21T05:30:06;6.70;99.90
45549;DHT22;31270;48.328;10.096;2023-11-21T05:32:33;6.60;99.90
45549;DHT22;31270;48.328;10.096;2023-11-21T05:34:59;6.60;99.90
45549;DHT22;31270;48.328;10.096;2023-11-21T05:37:25;6.60;99.90
45549;DHT22;31270;48.328;10.096;2023-11-21T05:39:53;6.60;99.90
45549;DHT22;31270;48.328;10.096;2023-11-21T05:42:22;6.60;99.90
45549;DHT22;31270;48.328;10.096;2023-11-21T05:44:48;6.60;99.90
45549;DHT22;31270;48.328;10.096;2023-11-21T05:47:14;6.60;99.90
45549;DHT22;31270;48.328;10.096;2023-11-21T05:49:40;6.60;99.90
45549;DHT22;31270;48.328;10.096;2023-11-21T05:52:05;6.60;99.90
45549;DHT22;31270;48.328;10.096;2023-11-21T05:54:32;6.60;99.90
45549;DHT22;31270;48.328;10.096;2023-11-21T05:56:57;6.60;99.90
45549;DHT22;31270;48.328;10.096;2023-11-21T05:59:23;6.50;99.90
45549;DHT22;31270;48.328;10.096;2023-11-21T06:01:48;6.50;99.90
45549;DHT22;31270;48.328;10.096;2023-11-21T06:04:15;6.50;99.90
45549;DHT22;31270;48.328;10.096;2023-11-21T06:06:41;6.50;99.90
45549;DHT22;31270;48.328;10.096;2023-11-21T06:09:07;6.50;99.90
45549;DHT22;31270;48.328;10.096;2023-11-21T06:11:35;6.40;99.90
45549;DHT22;31270;48.328;10.096;2023-11-21T06:14:00;6.40;99.90
45549;DHT22;31270;48.328;10.096;2023-11-21T06:16:26;6.40;99.90
45549;DHT22;31270;48.328;10.096;2023-11-21T06:18:53;6.30;99.90
45549;DHT22;31270;48.328;10.096;2023-11-21T06:21:19;6.30;99.90
45549;DHT22;31270;48.328;10.096;2023-11-21T06:23:45;6.30;99.90
45549;DHT22;31270;48.328;10.096;2023-11-21T06:26:11;6.30;99.90
45549;DHT22;31270;48.328;10.096;2023-11-21T06:28:38;6.40;99.90
45549;DHT22;31270;48.328;10.096;2023-11-21T06:31:03;6.30;99.90
45549;DHT22;31270;48.328;10.096;2023-11-21T06:33:34;6.40;99.90
45549;DHT22;31270;48.328;10.096;2023-11-21T06:36:00;6.40;99.90
45549;DHT22;31270;48.328;10.096;2023-11-21T06:38:28;6.40;99.90
45549;DHT22;31270;48.328;10.096;2023-11-21T06:40:56;6.40;99.90
45549;DHT22;31270;48.328;10.096;2023-11-21T06:43:23;6.30;99.90
45549;DHT22;31270;48.328;10.096;2023-11-21T06:45:49;6.40;99.90
45549;DHT22;31270;48.328;10.096;2023-11-21T06:48:15;6.40;99.90
45549;DHT22;31270;48.328;10.096;2023-11-21T06:50:40;6.30;99.90
45549;DHT22;31270;48.328;10.096;2023-11-21T06:53:07;6.30;99.90
45549;DHT22;31270;48.328;10.096;2023-11-21T06:55:33;6.30;99.90
45549;DHT22;31270;48.328;10.096;2023-11-21T06:58:00;6.30;99.90
45549;DHT22;31270;48.328;10.096;2023-11-21T07:00:26;6.30;99.90
45549;DHT22;31270;48.328;10.096;2023-11-21T07:02:56;6.40;99.90
45549;DHT22;31270;48.328;10.096;2023-11-21T07:05:22;6.40;99.90
45549;DHT22;31270;48.328;10.096;2023-11-21T07:07:48;6.30;99.90
45549;DHT22;31270;48.328;10.096;2023-11-21T07:10:15;6.40;99.90
45549;DHT22;31270;48.328;10.096;2023-11-21T07:12:41;6.40;99.90
45549;DHT22;31270;48.328;10.096;2023-11-21T07:15:07;6.40;99.90
45549;DHT22;31270;48.328;10.096;2023-11-21T07:17:35;6.40;99.90
45549;DHT22;31270;48.328;10.096;2023-11-21T07:20:01;6.50;99.90
45549;DHT22;31270;48.328;10.096;2023-11-21T07:22:27;6.50;99.90
45549;DHT22;31270;48.328;10.096;2023-11-21T07:24:55;6.50;99.90
45549;DHT22;31270;48.328;10.096;2023-11-21T07:27:22;6.50;99.90
45549;DHT22;31270;48.328;10.096;2023-11-21T07:29:47;6.50;99.90
45549;DHT22;31270;48.328;10.096;2023-11-21T07:32:14;6.50;99.90
45549;DHT22;31270;48.328;10.096;2023-11-21T07:34:40;6.50;99.90
45549;DHT22;31270;48.328;10.096;2023-11-21T07:37:07;6.50;99.90
45549;DHT22;31270;48.328;10.096;2023-11-21T07:39:35;6.50;99.90
45549;DHT22;31270;48.328;10.096;2023-11-21T07:42:01;6.50;99.90
45549;DHT22;31270;48.328;10.096;2023-11-21T07:44:28;6.60;99.90
45549;DHT22;31270;48.328;10.096;2023-11-21T07:46:54;6.60;99.90
45549;DHT22;31270;48.328;10.096;2023-11-21T07:49:23;6.70;99.90
45549;DHT22;31270;48.328;10.096;2023-11-21T07:51:50;6.80;99.90
45549;DHT22;31270;48.328;10.096;2023-11-21T07:54:16;6.70;99.90
45549;DHT22;31270;48.328;10.096;2023-11-21T07:56:45;6.90;99.90
45549;DHT22;31270;48.328;10.096;2023-11-21T07:59:15;6.80;99.90
45549;DHT22;31270;48.328;10.096;2023-11-21T08:01:51;6.90;99.90
45549;DHT22;31270;48.328;10.096;2023-11-21T08:04:30;6.90;99.90
45549;DHT22;31270;48.328;10.096;2023-11-21T08:07:33;6.90;99.90
45549;DHT22;31270;48.328;10.096;2023-11-21T08:10:03;7.10;99.90
45549;DHT22;31270;48.328;10.096;2023-11-21T08:12:55;6.90;99.90
45549;DHT22;31270;48.328;10.096;2023-11-21T08:15:30;7.00;99.90
45549;DHT22;31270;48.328;10.096;2023-11-21T08:17:58;7.00;99.90
45549;DHT22;31270;48.328;10.096;2023-11-21T08:21:06;7.10;99.90
45549;DHT22;31270;48.328;10.096;2023-11-21T08:23:56;7.00;99.90
45549;DHT22;31270;48.328;10.096;2023-11-21T08:26:41;7.10;99.90
45549;DHT22;31270;48.328;10.096;2023-11-21T08:29:18;7.10;99.90
45549;DHT22;31270;48.328;10.096;2023-11-21T08:32:11;7.10;99.90
45549;DHT22;31270;48.328;10.096;2023-11-21T08:34:39;7.00;99.90
45549;DHT22;31270;48.328;10.096;2023-11-21T08:37:19;7.20;99.90
45549;DHT22;31270;48.328;10.096;2023-11-21T08:39:50;7.40;99.90
45549;DHT22;31270;48.328;10.096;2023-11-21T08:42:44;7.30;99.90
45549;DHT22;31270;48.328;10.096;2023-11-21T08:45:17;7.40;99.90
45549;DHT22;31270;48.328;10.096;2023-11-21T08:48:04;7.40;99.90
45549;DHT22;31270;48.328;10.096;2023-11-21T08:50:55;7.40;99.90
45549;DHT22;31270;48.328;10.096;2023-11-21T08:53:24;7.40;99.90
45549;DHT22;31270;48.328;10.096;2023-11-21T08:56:17;7.60;99.90
45549;DHT22;31270;48.328;10.096;2023-11-21T08:59:09;7.40;99.90
45549;DHT22;31270;48.328;10.096;2023-11-21T09:01:37;7.70;99.90
45549;DHT22;31270;48.328;10.096;2023-11-21T09:04:04;7.60;99.90
45549;DHT22;31270;48.328;10.096;2023-11-21T09:06:30;7.70;99.90
45549;DHT22;31270;48.328;10.096;2023-11-21T09:08:55;7.80;99.90
45549;DHT22;31270;48.328;10.096;2023-11-21T09:11:21;7.80;99.90
45549;DHT22;31270;48.328;10.096;2023-11-21T09:13:46;7.90;99.90
45549;DHT22;31270;48.328;10.096;2023-11-21T09:16:14;7.90;99.90
45549;DHT22;31270;48.328;10.096;2023-11-21T09:18:39;8.00;99.90
45549;DHT22;31270;48.328;10.096;2023-11-21T09:21:05;8.00;99.90
45549;DHT22;31270;48.328;10.096;2023-11-21T09:23:30;8.10;99.90
45549;DHT22;31270;48.328;10.096;2023-11-21T09:25:56;8.10;99.90
45549;DHT22;31270;48.328;10.096;2023-11-21T09:28:22;8.10;99.90
45549;DHT22;31270;48.328;10.096;2023-11-21T09:30:48;8.10;99.90
45549;DHT22;31270;48.328;10.096;2023-11-21T09:33:15;8.20;99.90
45549;DHT22;31270;48.328;10.096;2023-11-21T09:35:41;8.20;99.90
45549;DHT22;31270;48.328;10.096;2023-11-21T09:38:09;8.20;99.90
45549;DHT22;31270;48.328;10.096;2023-11-21T09:40:36;8.30;99.90
45549;DHT22;31270;48.328;10.096;2023-11-21T09:43:11;8.40;99.90
45549;DHT22;31270;48.328;10.096;2023-11-21T09:45:44;8.40;99.90
45549;DHT22;31270;48.328;10.096;2023-11-21T09:48:10;8.40;99.90
45549;DHT22;31270;48.328;10.096;2023-11-21T09:50:37;8.40;99.90
45549;DHT22;31270;48.328;10.096;2023-11-21T09:53:23;8.50;99.90
45549;DHT22;31270;48.328;10.096;2023-11-21T09:55:53;8.60;99.90
45549;DHT22;31270;48.328;10.096;2023-11-21T09:58:19;8.60;99.90
45549;DHT22;31270;48.328;10.096;2023-11-21T10:00:48;8.70;99.90
45549;DHT22;31270;48.328;10.096;2023-11-21T10:03:14;8.80;99.90
45549;DHT22;31270;48.328;10.096;2023-11-21T10:05:46;8.80;99.90
45549;DHT22;31270;48.328;10.096;2023-11-21T10:08:13;8.80;99.90
45549;DHT22;31270;48.328;10.096;2023-11-21T10:10:47;8.90;99.90
45549;DHT22;31270;48.328;10.096;2023-11-21T10:13:15;9.00;99.90
45549;DHT22;31270;48.328;10.096;2023-11-21T10:15:49;9.00;99.90
45549;DHT22;31270;48.328;10.096;2023-11-21T10:18:15;9.00;99.90
45549;DHT22;31270;48.328;10.096;2023-11-21T10:20:41;8.90;99.90
45549;DHT22;31270;48.328;10.096;2023-11-21T10:23:08;8.90;99.90
45549;DHT22;31270;48.328;10.096;2023-11-21T10:25:37;8.90;99.90
45549;DHT22;31270;48.328;10.096;2023-11-21T10:28:03;8.80;99.90
45549;DHT22;31270;48.328;10.096;2023-11-21T10:30:37;8.80;99.90
45549;DHT22;31270;48.328;10.096;2023-11-21T10:33:04;8.90;99.90
45549;DHT22;31270;48.328;10.096;2023-11-21T10:35:45;9.10;99.90
45549;DHT22;31270;48.328;10.096;2023-11-21T10:38:20;9.30;99.90
45549;DHT22;31270;48.328;10.096;2023-11-21T10:40:51;9.50;99.90
45549;DHT22;31270;48.328;10.096;2023-11-21T10:43:18;9.50;99.90
45549;DHT22;31270;48.328;10.096;2023-11-21T10:45:44;9.50;99.90
45549;DHT22;31270;48.328;10.096;2023-11-21T10:48:13;9.50;99.90
45549;DHT22;31270;48.328;10.096;2023-11-21T10:50:43;9.50;99.90
45549;DHT22;31270;48.328;10.096;2023-11-21T10:53:09;9.60;99.90
45549;DHT22;31270;48.328;10.096;2023-11-21T10:55:37;9.70;99.90
45549;DHT22;31270;48.328;10.096;2023-11-21T10:58:04;9.80;99.90
45549;DHT22;31270;48.328;10.096;2023-11-21T11:00:32;10.00;99.90
45549;DHT22;31270;48.328;10.096;2023-11-21T11:02:58;10.10;99.90
45549;DHT22;31270;48.328;10.096;2023-11-21T11:05:26;10.10;99.90
45549;DHT22;31270;48.328;10.096;2023-11-21T11:10:26;10.10;99.90
45549;DHT22;31270;48.328;10.096;2023-11-21T11:12:54;10.20;99.90
45549;DHT22;31270;48.328;10.096;2023-11-21T11:15:21;10.30;99.90
45549;DHT22;31270;48.328;10.096;2023-11-21T11:17:48;10.30;99.90
45549;DHT22;31270;48.328;10.096;2023-11-21T11:20:16;10.40;99.90
45549;DHT22;31270;48.328;10.096;2023-11-21T11:28:47;10.80;99.90
45549;DHT22;31270;48.328;10.096;2023-11-21T11:34:30;10.90;99.90
45549;DHT22;31270;48.328;10.096;2023-11-21T11:37:08;10.90;99.90
45549;DHT22;31270;48.328;10.096;2023-11-21T11:39:38;10.70;99.90
45549;DHT22;31270;48.328;10.096;2023-11-21T11:42:08;10.80;99.90
45549;DHT22;31270;48.328;10.096;2023-11-21T11:47:23;10.90;99.90
45549;DHT22;31270;48.328;10.096;2023-11-21T11:50:11;11.00;99.90
45549;DHT22;31270;48.328;10.096;2023-11-21T11:52:49;11.00;99.90
45549;DHT22;31270;48.328;10.096;2023-11-21T11:55:17;11.00;99.90
45549;DHT22;31270;48.328;10.096;2023-11-21T11:57:44;11.10;99.90
45549;DHT22;31270;48.328;10.096;2023-11-21T12:02:56;10.90;99.90
45549;DHT22;31270;48.328;10.096;2023-11-21T12:05:23;10.80;99.90
45549;DHT22;31270;48.328;10.096;2023-11-21T12:08:00;10.80;99.90
45549;DHT22;31270;48.328;10.096;2023-11-21T12:10:34;10.80;99.90
45549;DHT22;31270;48.328;10.096;2023-11-21T12:13:10;10.80;99.90
45549;DHT22;31270;48.328;10.096;2023-11-21T12:15:37;10.80;99.90
45549;DHT22;31270;48.328;10.096;2023-11-21T12:18:04;10.90;99.90
45549;DHT22;31270;48.328;10.096;2023-11-21T12:20:31;10.90;99.90
45549;DHT22;31270;48.328;10.096;2023-11-21T12:23:01;11.00;99.90
45549;DHT22;31270;48.328;10.096;2023-11-21T12:25:28;11.20;99.90
45549;DHT22;31270;48.328;10.096;2023-11-21T12:27:56;11.20;99.90
45549;DHT22;31270;48.328;10.096;2023-11-21T12:30:24;11.00;99.90
45549;DHT22;31270;48.328;10.096;2023-11-21T12:32:54;10.90;99.90
45549;DHT22;31270;48.328;10.096;2023-11-21T12:35:24;10.90;99.90
45549;DHT22;31270;48.328;10.096;2023-11-21T12:37:51;11.00;99.90
45549;DHT22;31270;48.328;10.096;2023-11-21T12:40:18;11.00;99.90
45549;DHT22;31270;48.328;10.096;2023-11-21T12:42:48;11.00;99.90
45549;DHT22;31270;48.328;10.096;2023-11-21T12:45:21;10.90;99.90
45549;DHT22;31270;48.328;10.096;2023-11-21T12:47:55;10.80;99.90
45549;DHT22;31270;48.328;10.096;2023-11-21T12:50:23;10.80;99.90
45549;DHT22;31270;48.328;10.096;2023-11-21T12:52:52;10.50;99.90
45549;DHT22;31270;48.328;10.096;2023-11-21T12:55:22;10.40;99.90
45549;DHT22;31270;48.328;10.096;2023-11-21T12:57:55;9.90;99.90
45549;DHT22;31270;48.328;10.096;2023-11-21T13:00:44;9.40;99.90
45549;DHT22;31270;48.328;10.096;2023-11-21T13:03:12;9.20;99.90
45549;DHT22;31270;48.328;10.096;2023-11-21T13:06:05;9.40;99.90
45549;DHT22;31270;48.328;10.096;2023-11-21T13:08:33;9.20;99.90
45549;DHT22;31270;48.328;10.096;2023-11-21T13:10:59;9.20;99.90
45549;DHT22;31270;48.328;10.096;2023-11-21T13:13:28;9.10;99.90
45549;DHT22;31270;48.328;10.096;2023-11-21T13:15:56;9.00;99.90
45549;DHT22;31270;48.328;10.096;2023-11-21T13:18:23;8.90;99.90
45549;DHT22;31270;48.328;10.096;2023-11-21T13:20:49;8.90;99.90
45549;DHT22;31270;48.328;10.096;2023-11-21T13:23:17;8.90;99.90
45549;DHT22;31270;48.328;10.096;2023-11-21T13:25:43;8.80;99.90
45549;DHT22;31270;48.328;10.096;2023-11-21T13:28:11;8.80;99.90
45549;DHT22;31270;48.328;10.096;2023-11-21T13:30:39;8.90;99.90
45549;DHT22;31270;48.328;10.096;2023-11-21T13:33:06;8.90;99.90
45549;DHT22;31270;48.328;10.096;2023-11-21T13:35:37;8.90;99.90
45549;DHT22;31270;48.328;10.096;2023-11-21T13:38:11;9.00;99.90
45549;DHT22;31270;48.328;10.096;2023-11-21T13:40:38;9.00;99.90
45549;DHT22;31270;48.328;10.096;2023-11-21T13:43:12;9.00;99.90
45549;DHT22;31270;48.328;10.096;2023-11-21T13:45:41;9.30;99.90
45549;DHT22;31270;48.328;10.096;2023-11-21T13:48:08;9.20;99.90
45549;DHT22;31270;48.328;10.096;2023-11-21T13:50:41;9.00;99.90
45549;DHT22;31270;48.328;10.096;2023-11-21T13:53:36;9.00;99.90
45549;DHT22;31270;48.328;10.096;2023-11-21T13:56:03;9.00;99.90
45549;DHT22;31270;48.328;10.096;2023-11-21T13:58:29;9.00;99.90
45549;DHT22;31270;48.328;10.096;2023-11-21T14:01:13;9.00;99.90
45549;DHT22;31270;48.328;10.096;2023-11-21T14:04:07;9.10;99.90
45549;DHT22;31270;48.328;10.096;2023-11-21T14:06:51;9.20;99.90
45549;DHT22;31270;48.328;10.096;2023-11-21T14:09:22;9.10;99.90
45549;DHT22;31270;48.328;10.096;2023-11-21T14:11:52;9.10;99.90
45549;DHT22;31270;48.328;10.096;2023-11-21T14:14:19;9.20;99.90
45549;DHT22;31270;48.328;10.096;2023-11-21T14:16:45;9.20;99.90
45549;DHT22;31270;48.328;10.096;2023-11-21T14:19:11;9.20;99.90
45549;DHT22;31270;48.328;10.096;2023-11-21T14:21:44;9.10;99.90
45549;DHT22;31270;48.328;10.096;2023-11-21T14:24:11;9.20;99.90
45549;DHT22;31270;48.328;10.096;2023-11-21T14:26:42;9.10;99.90
45549;DHT22;31270;48.328;10.096;2023-11-21T14:29:08;9.10;99.90
45549;DHT22;31270;48.328;10.096;2023-11-21T14:31:35;9.10;99.90
45549;DHT22;31270;48.328;10.096;2023-11-21T14:34:00;9.10;99.90
45549;DHT22;31270;48.328;10.096;2023-11-21T14:36:31;9.10;99.90
45549;DHT22;31270;48.328;10.096;2023-11-21T14:38:57;9.10;99.90
45549;DHT22;31270;48.328;10.096;2023-11-21T14:41:22;9.10;99.90
45549;DHT22;31270;48.328;10.096;2023-11-21T14:43:51;9.10;99.90
45549;DHT22;31270;48.328;10.096;2023-11-21T14:46:17;9.10;99.90
45549;DHT22;31270;48.328;10.096;2023-11-21T14:48:45;9.10;99.90
45549;DHT22;31270;48.328;10.096;2023-11-21T14:51:24;9.00;99.90
45549;DHT22;31270;48.328;10.096;2023-11-21T14:53:59;9.00;99.90
45549;DHT22;31270;48.328;10.096;2023-11-21T14:56:32;9.00;99.90
45549;DHT22;31270;48.328;10.096;2023-11-21T14:59:21;9.00;99.90
45549;DHT22;31270;48.328;10.096;2023-11-21T15:01:46;8.90;99.90
45549;DHT22;31270;48.328;10.096;2023-11-21T15:04:22;8.90;99.90
45549;DHT22;31270;48.328;10.096;2023-11-21T15:07:02;8.90;99.90
45549;DHT22;31270;48.328;10.096;2023-11-21T15:09:28;8.90;99.90
45549;DHT22;31270;48.328;10.096;2023-11-21T15:11:57;8.80;99.90
45549;DHT22;31270;48.328;10.096;2023-11-21T15:14:29;8.80;99.90
45549;DHT22;31270;48.328;10.096;2023-11-21T15:17:00;8.90;99.90
45549;DHT22;31270;48.328;10.096;2023-11-21T15:19:27;8.80;99.90
45549;DHT22;31270;48.328;10.096;2023-11-21T15:21:54;8.80;99.90
45549;DHT22;31270;48.328;10.096;2023-11-21T15:24:20;8.80;99.90
45549;DHT22;31270;48.328;10.096;2023-11-21T15:26:45;8.80;99.90
45549;DHT22;31270;48.328;10.096;2023-11-21T15:29:11;8.80;99.90
45549;DHT22;31270;48.328;10.096;2023-11-21T15:31:38;8.70;99.90
45549;DHT22;31270;48.328;10.096;2023-11-21T15:34:06;8.70;99.90
45549;DHT22;31270;48.328;10.096;2023-11-21T15:36:32;8.70;99.90
45549;DHT22;31270;48.328;10.096;2023-11-21T15:38:59;8.60;99.90
45549;DHT22;31270;48.328;10.096;2023-11-21T15:41:24;8.60;99.90
45549;DHT22;31270;48.328;10.096;2023-11-21T15:43:50;8.60;99.90
45549;DHT22;31270;48.328;10.096;2023-11-21T15:46:16;8.60;99.90
45549;DHT22;31270;48.328;10.096;2023-11-21T15:48:42;8.70;99.90
45549;DHT22;31270;48.328;10.096;2023-11-21T15:51:15;8.60;99.90
45549;DHT22;31270;48.328;10.096;2023-11-21T15:53:42;8.50;99.90
45549;DHT22;31270;48.328;10.096;2023-11-21T15:56:08;8.50;99.90
45549;DHT22;31270;48.328;10.096;2023-11-21T15:58:38;8.50;99.90